Time;durP1;ratioP1;P1;durP2;ratioP2;P2;SDS_P1;SDS_P2;PMS_P1;PMS_P2;Temp;Humidity;BMP_temperature;BMP_pressure;BME280_temperature;BME280_humidity;BME280_pressure;Samples;Min_cycle;Max_cycle;Signal;HPM_P1;HPM_P2
2023/04/09 00:01:55;;;;;;;38.00;23.37;;;;;;;;;;5020715;28;20485;-69
2023/04/09 00:04:22;;;;;;;33.87;21.97;;;;;;;;;;5021029;28;20554;-67
2023/04/09 00:06:48;;;;;;;33.87;21.20;;;;;;;;;;5019805;28;20546;-69
2023/04/09 00:09:15;;;;;;;34.30;20.90;;;;;;;;;;5020622;28;20537;-69
2023/04/09 00:11:44;;;;;;;29.33;18.87;;;;;;;;;;5020468;28;21046;-67
2023/04/09 00:14:11;;;;;;;29.33;20.67;;;;;;;;;;5020497;28;20478;-67
2023/04/09 00:16:40;;;;;;;32.73;20.30;;;;;;;;;;5019782;28;20509;-66
2023/04/09 00:19:06;;;;;;;31.20;19.70;;;;;;;;;;5020716;28;20502;-66
2023/04/09 00:21:33;;;;;;;33.90;21.90;;;;;;;;;;5019753;28;20478;-66
2023/04/09 00:24:00;;;;;;;32.80;20.00;;;;;;;;;;5020524;28;20466;-67
2023/04/09 00:26:26;;;;;;;39.37;22.37;;;;;;;;;;5020305;28;20482;-66
2023/04/09 00:28:52;;;;;;;34.27;21.93;;;;;;;;;;5020765;28;20477;-66
2023/04/09 00:31:19;;;;;;;35.90;21.07;;;;;;;;;;5020645;28;20490;-67
2023/04/09 00:33:47;;;;;;;37.77;21.50;;;;;;;;;;5020738;28;20450;-66
2023/04/09 00:36:13;;;;;;;31.87;20.17;;;;;;;;;;5018918;28;20562;-67
2023/04/09 00:38:39;;;;;;;46.83;22.90;;;;;;;;;;5021057;28;20462;-66
2023/04/09 00:41:06;;;;;;;33.60;20.60;;;;;;;;;;5020175;28;20554;-67
2023/04/09 00:43:32;;;;;;;36.77;21.10;;;;;;;;;;5020895;28;20450;-66
2023/04/09 00:45:59;;;;;;;35.17;22.37;;;;;;;;;;5020039;28;20490;-66
2023/04/09 00:48:26;;;;;;;40.13;24.17;;;;;;;;;;5019782;28;20481;-66
2023/04/09 00:50:53;;;;;;;40.43;23.67;;;;;;;;;;5019288;28;20501;-66
2023/04/09 00:53:20;;;;;;;35.17;22.70;;;;;;;;;;5020554;28;20459;-66
2023/04/09 00:55:46;;;;;;;32.80;20.57;;;;;;;;;;5019482;28;20512;-66
2023/04/09 00:58:13;;;;;;;31.90;20.63;;;;;;;;;;5020114;28;20514;-66
2023/04/09 01:00:39;;;;;;;34.13;20.90;;;;;;;;;;5019815;28;20506;-66
2023/04/09 01:03:06;;;;;;;40.20;20.50;;;;;;;;;;5020215;28;20794;-66
2023/04/09 01:05:36;;;;;;;36.13;21.43;;;;;;;;;;5018863;28;20502;-66
2023/04/09 01:08:08;;;;;;;36.70;22.47;;;;;;;;;;5020135;28;20475;-66
2023/04/09 01:10:38;;;;;;;31.73;19.87;;;;;;;;;;5019351;28;20509;-66
2023/04/09 01:13:08;;;;;;;35.47;21.33;;;;;;;;;;5023885;28;20453;-66
2023/04/09 01:15:38;;;;;;;32.90;20.23;;;;;;;;;;5023195;28;20497;-66
2023/04/09 01:18:06;;;;;;;30.13;18.70;;;;;;;;;;5023122;28;20455;-66
2023/04/09 01:20:35;;;;;;;35.03;21.90;;;;;;;;;;5022786;28;20525;-66
2023/04/09 01:23:07;;;;;;;36.50;21.33;;;;;;;;;;5022724;28;20450;-66
2023/04/09 01:25:43;;;;;;;40.00;23.47;;;;;;;;;;5022345;28;20494;-66
2023/04/09 01:28:16;;;;;;;33.33;21.33;;;;;;;;;;5023552;28;20450;-66
2023/04/09 01:30:46;;;;;;;35.83;22.23;;;;;;;;;;5022879;28;20538;-66
2023/04/09 01:33:13;;;;;;;35.73;22.10;;;;;;;;;;5017508;28;20446;-66
2023/04/09 01:35:41;;;;;;;34.50;21.77;;;;;;;;;;5021012;28;20491;-66
2023/04/09 01:38:08;;;;;;;33.93;20.73;;;;;;;;;;5023400;28;20490;-66
2023/04/09 01:40:35;;;;;;;35.30;19.90;;;;;;;;;;5021045;28;20501;-66
2023/04/09 01:43:02;;;;;;;36.57;22.30;;;;;;;;;;5022485;28;20482;-66
2023/04/09 01:45:30;;;;;;;35.63;21.00;;;;;;;;;;5022379;28;20537;-67
2023/04/09 01:47:56;;;;;;;35.90;22.50;;;;;;;;;;5022599;28;20470;-66
2023/04/09 01:50:23;;;;;;;34.03;21.13;;;;;;;;;;5021269;28;20537;-65
2023/04/09 01:52:50;;;;;;;36.87;21.50;;;;;;;;;;5023004;28;20486;-67
2023/04/09 01:55:17;;;;;;;30.03;19.83;;;;;;;;;;5022318;28;20979;-66
2023/04/09 01:57:43;;;;;;;39.60;22.70;;;;;;;;;;5022459;28;20566;-66
2023/04/09 02:00:11;;;;;;;36.03;22.90;;;;;;;;;;5021984;28;20446;-66
2023/04/09 02:02:42;;;;;;;37.90;20.37;;;;;;;;;;5022706;28;20465;-67
2023/04/09 02:05:11;;;;;;;43.07;21.87;;;;;;;;;;5021223;28;20518;-66
2023/04/09 02:07:39;;;;;;;36.27;22.63;;;;;;;;;;5022625;28;20533;-66
2023/04/09 02:10:06;;;;;;;33.83;21.87;;;;;;;;;;5021967;28;20450;-66
2023/04/09 02:12:33;;;;;;;35.10;21.37;;;;;;;;;;5021702;28;20562;-66
2023/04/09 02:15:01;;;;;;;44.20;23.30;;;;;;;;;;5021664;28;20470;-66
2023/04/09 02:17:27;;;;;;;39.17;21.13;;;;;;;;;;5021994;28;20486;-66
2023/04/09 02:19:56;;;;;;;36.17;22.10;;;;;;;;;;5021701;28;20474;-66
2023/04/09 02:22:22;;;;;;;41.63;22.50;;;;;;;;;;5021828;28;20497;-66
2023/04/09 02:24:48;;;;;;;39.97;22.77;;;;;;;;;;5022327;28;20545;-65
2023/04/09 02:27:15;;;;;;;37.80;22.50;;;;;;;;;;5021388;28;20490;-66
2023/04/09 02:29:41;;;;;;;37.67;23.40;;;;;;;;;;5019301;28;20526;-65
2023/04/09 02:32:07;;;;;;;40.73;21.40;;;;;;;;;;5021773;28;20585;-66
2023/04/09 02:34:34;;;;;;;36.37;23.50;;;;;;;;;;5022469;28;20523;-66
2023/04/09 02:37:02;;;;;;;36.90;23.83;;;;;;;;;;5020969;28;20506;-66
2023/04/09 02:39:28;;;;;;;40.53;23.53;;;;;;;;;;5022189;28;20534;-66
2023/04/09 02:41:54;;;;;;;36.93;22.33;;;;;;;;;;5021515;28;21320;-67
2023/04/09 02:44:21;;;;;;;40.13;23.37;;;;;;;;;;5021517;28;20849;-66
2023/04/09 02:46:48;;;;;;;34.13;21.60;;;;;;;;;;5021293;28;20517;-65
2023/04/09 02:49:14;;;;;;;38.67;21.07;;;;;;;;;;5020777;28;20451;-64
2023/04/09 02:51:41;;;;;;;35.17;21.10;;;;;;;;;;5020693;28;20478;-65
2023/04/09 02:54:08;;;;;;;32.40;21.50;;;;;;;;;;5021776;28;20458;-64
2023/04/09 02:56:35;;;;;;;34.00;22.00;;;;;;;;;;5020343;28;20513;-63
2023/04/09 02:59:01;;;;;;;33.63;20.33;;;;;;;;;;5021428;28;20474;-64
2023/04/09 03:01:28;;;;;;;37.67;21.30;;;;;;;;;;5021207;28;20501;-64
2023/04/09 03:03:54;;;;;;;32.87;20.20;;;;;;;;;;5021425;28;20457;-64
2023/04/09 03:06:20;;;;;;;34.70;22.00;;;;;;;;;;5020084;28;20524;-64
2023/04/09 03:08:47;;;;;;;30.70;19.67;;;;;;;;;;5021641;28;20489;-64
2023/04/09 03:11:15;;;;;;;32.90;22.50;;;;;;;;;;5020352;28;20561;-64
2023/04/09 03:13:41;;;;;;;34.57;20.87;;;;;;;;;;5021013;28;20575;-64
2023/04/09 03:16:09;;;;;;;29.00;20.20;;;;;;;;;;5020406;28;20486;-64
2023/04/09 03:18:35;;;;;;;35.20;20.50;;;;;;;;;;5020724;28;20860;-64
2023/04/09 03:21:04;;;;;;;31.00;20.17;;;;;;;;;;5019755;28;20550;-64
2023/04/09 03:23:33;;;;;;;37.93;20.93;;;;;;;;;;5021528;28;20462;-64
2023/04/09 03:26:00;;;;;;;37.30;21.63;;;;;;;;;;5019872;28;20484;-64
2023/04/09 03:28:28;;;;;;;33.53;18.17;;;;;;;;;;5020911;28;20443;-64
2023/04/09 03:30:54;;;;;;;32.23;18.80;;;;;;;;;;5020437;28;20502;-64
2023/04/09 03:33:21;;;;;;;31.23;18.50;;;;;;;;;;5021043;28;20497;-64
2023/04/09 03:35:47;;;;;;;28.37;19.67;;;;;;;;;;5018649;28;20510;-63
2023/04/09 03:38:14;;;;;;;36.80;20.67;;;;;;;;;;5020891;28;21163;-65
2023/04/09 03:40:41;;;;;;;31.70;19.17;;;;;;;;;;5020229;28;20554;-65
2023/04/09 03:43:07;;;;;;;33.07;21.13;;;;;;;;;;5021146;28;20451;-65
2023/04/09 03:45:35;;;;;;;41.33;20.73;;;;;;;;;;5020083;28;20494;-66
2023/04/09 03:48:02;;;;;;;34.50;20.50;;;;;;;;;;5020241;28;20523;-66
2023/04/09 03:50:28;;;;;;;43.20;20.90;;;;;;;;;;5019724;28;20507;-65
2023/04/09 03:52:54;;;;;;;28.90;18.50;;;;;;;;;;5020930;28;20562;-65
2023/04/09 03:55:21;;;;;;;41.20;20.70;;;;;;;;;;5019531;28;20482;-65
2023/04/09 03:57:47;;;;;;;41.90;20.03;;;;;;;;;;5020136;28;20495;-65
2023/04/09 04:00:14;;;;;;;54.00;24.20;;;;;;;;;;5019922;28;20443;-65
2023/04/09 04:02:41;;;;;;;51.43;23.27;;;;;;;;;;5020440;28;20531;-65
2023/04/09 04:05:08;;;;;;;35.70;20.40;;;;;;;;;;5019453;28;20489;-65
2023/04/09 04:07:35;;;;;;;43.73;22.70;;;;;;;;;;5020959;28;20522;-65
2023/04/09 04:10:03;;;;;;;45.23;23.37;;;;;;;;;;5020318;28;20486;-65
2023/04/09 04:12:31;;;;;;;44.47;24.80;;;;;;;;;;5019921;28;21025;-65
2023/04/09 04:14:58;;;;;;;40.47;22.93;;;;;;;;;;5013335;28;20474;-65
2023/04/09 04:17:24;;;;;;;40.60;23.20;;;;;;;;;;5018778;28;20517;-65
2023/04/09 04:19:52;;;;;;;102.30;32.07;;;;;;;;;;5020378;28;20513;-66
2023/04/09 04:22:18;;;;;;;87.40;34.13;;;;;;;;;;5018062;28;20498;-66
2023/04/09 04:24:45;;;;;;;85.33;32.70;;;;;;;;;;5020581;28;20489;-66
2023/04/09 04:27:11;;;;;;;56.67;30.53;;;;;;;;;;5019537;28;20510;-66
2023/04/09 04:29:37;;;;;;;81.60;34.53;;;;;;;;;;5020307;28;20493;-65
2023/04/09 04:32:04;;;;;;;95.87;33.37;;;;;;;;;;5019704;28;20482;-65
2023/04/09 04:34:30;;;;;;;107.47;35.50;;;;;;;;;;5019839;28;20551;-65
2023/04/09 04:36:58;;;;;;;97.33;34.73;;;;;;;;;;5019243;28;20509;-65
2023/04/09 04:39:25;;;;;;;95.13;34.03;;;;;;;;;;5020066;28;20475;-65
2023/04/09 04:41:51;;;;;;;89.83;34.67;;;;;;;;;;5019753;28;20580;-65
2023/04/09 04:44:17;;;;;;;95.90;34.83;;;;;;;;;;5019798;28;20977;-65
2023/04/09 04:46:44;;;;;;;94.37;34.00;;;;;;;;;;5020732;28;20549;-65
2023/04/09 04:49:10;;;;;;;142.03;37.27;;;;;;;;;;5022909;28;20586;-65
2023/04/09 04:51:36;;;;;;;91.07;35.50;;;;;;;;;;5023180;28;20521;-65
2023/04/09 04:54:04;;;;;;;97.63;36.43;;;;;;;;;;5023537;28;20490;-64
2023/04/09 04:56:31;;;;;;;126.83;37.27;;;;;;;;;;5019727;28;20512;-66
2023/04/09 04:58:57;;;;;;;132.07;38.77;;;;;;;;;;5023785;28;20490;-66
2023/04/09 05:01:23;;;;;;;139.93;39.00;;;;;;;;;;5022722;28;20561;-65
2023/04/09 05:03:50;;;;;;;90.57;38.37;;;;;;;;;;5023832;28;20473;-65
2023/04/09 05:06:16;;;;;;;134.00;39.63;;;;;;;;;;5022247;28;20574;-65
2023/04/09 05:08:42;;;;;;;229.00;48.50;;;;;;;;;;5023098;28;20485;-64
2023/04/09 05:11:13;;;;;;;219.27;45.00;;;;;;;;;;5022812;28;20520;-64
2023/04/09 05:13:40;;;;;;;116.70;40.67;;;;;;;;;;5023922;28;20450;-66
2023/04/09 05:16:07;;;;;;;77.33;38.77;;;;;;;;;;5022436;28;20506;-65
2023/04/09 05:18:33;;;;;;;262.13;49.23;;;;;;;;;;5022792;28;20482;-66
2023/04/09 05:20:59;;;;;;;191.77;50.57;;;;;;;;;;5021717;28;20502;-66
2023/04/09 05:23:26;;;;;;;250.57;49.87;;;;;;;;;;5023803;28;20542;-65
2023/04/09 05:25:52;;;;;;;137.87;47.63;;;;;;;;;;5020230;28;20557;-65
2023/04/09 05:28:20;;;;;;;195.00;55.70;;;;;;;;;;5022852;28;20546;-65
2023/04/09 05:30:47;;;;;;;210.13;48.83;;;;;;;;;;5022524;28;20559;-65
2023/04/09 05:33:13;;;;;;;117.67;44.50;;;;;;;;;;5023754;28;20475;-65
2023/04/09 05:35:39;;;;;;;164.60;49.60;;;;;;;;;;5021630;28;20558;-65
2023/04/09 05:38:06;;;;;;;141.03;47.00;;;;;;;;;;5023389;28;20625;-65
2023/04/09 05:40:34;;;;;;;118.00;45.60;;;;;;;;;;5021662;28;20489;-66
2023/04/09 05:43:00;;;;;;;184.27;48.93;;;;;;;;;;5023140;28;20582;-65
2023/04/09 05:45:28;;;;;;;138.87;47.57;;;;;;;;;;5022100;28;20490;-65
2023/04/09 05:47:54;;;;;;;131.27;44.10;;;;;;;;;;5017522;28;20453;-66
2023/04/09 05:50:21;;;;;;;139.33;47.63;;;;;;;;;;5021571;28;20514;-65
2023/04/09 05:52:47;;;;;;;222.83;50.67;;;;;;;;;;5023214;28;20618;-65
2023/04/09 05:55:14;;;;;;;121.67;47.73;;;;;;;;;;5019328;28;21114;-65
2023/04/09 05:57:41;;;;;;;242.50;52.60;;;;;;;;;;5022057;28;20574;-65
2023/04/09 06:00:08;;;;;;;120.67;48.77;;;;;;;;;;5022692;28;20549;-65
2023/04/09 06:02:36;;;;;;;189.33;52.63;;;;;;;;;;5022936;28;20486;-65
2023/04/09 06:05:02;;;;;;;210.53;49.57;;;;;;;;;;5022290;28;20459;-65
2023/04/09 06:07:29;;;;;;;156.73;47.10;;;;;;;;;;5021613;28;20616;-65
2023/04/09 06:09:55;;;;;;;150.73;49.30;;;;;;;;;;5021897;28;20518;-66
2023/04/09 06:12:22;;;;;;;119.33;48.03;;;;;;;;;;5021776;28;20513;-66
2023/04/09 06:14:48;;;;;;;159.70;51.33;;;;;;;;;;5022545;28;20848;-66
2023/04/09 06:17:15;;;;;;;101.57;43.97;;;;;;;;;;5021972;28;20502;-65
2023/04/09 06:19:43;;;;;;;280.70;56.30;;;;;;;;;;5020289;28;20455;-65
2023/04/09 06:22:09;;;;;;;146.43;51.30;;;;;;;;;;5021692;28;20487;-65
2023/04/09 06:24:36;;;;;;;121.63;49.73;;;;;;;;;;5022432;28;20454;-65
2023/04/09 06:27:02;;;;;;;101.93;45.17;;;;;;;;;;5022156;28;20497;-65
2023/04/09 06:29:28;;;;;;;116.20;50.03;;;;;;;;;;5022666;28;20482;-65
2023/04/09 06:31:55;;;;;;;107.00;48.03;;;;;;;;;;5021761;28;20509;-65
2023/04/09 06:34:21;;;;;;;129.87;48.47;;;;;;;;;;5021733;28;20546;-65
2023/04/09 06:36:49;;;;;;;160.63;46.13;;;;;;;;;;5021126;28;20541;-66
2023/04/09 06:39:15;;;;;;;144.50;52.13;;;;;;;;;;5021013;28;21052;-66
2023/04/09 06:41:42;;;;;;;239.17;51.30;;;;;;;;;;5020057;28;20510;-66
2023/04/09 06:44:08;;;;;;;204.53;49.80;;;;;;;;;;5020398;28;20478;-66
2023/04/09 07:41:28;;;;;;;62.40;39.20;;;;;;;;;;5140168;27;20628;-64
2023/04/09 07:43:55;;;;;;;75.50;37.50;;;;;;;;;;5118923;28;20508;-67
2023/04/09 07:48:07;;;;;;;60.50;36.80;;;;;;;;;;5146130;27;21249;-64
2023/04/09 08:03:04;;;;;;;61.30;37.53;;;;;;;;;;5156227;27;20646;-65
2023/04/09 08:05:31;;;;;;;61.20;37.67;;;;;;;;;;5131026;27;20502;-65
2023/04/09 08:07:57;;;;;;;58.73;36.83;;;;;;;;;;5078876;28;20583;-65
2023/04/09 08:10:23;;;;;;;57.47;38.50;;;;;;;;;;5079791;28;20487;-66
2023/04/09 08:12:50;;;;;;;52.00;37.23;;;;;;;;;;5115215;28;20647;-66
2023/04/09 08:15:16;;;;;;;54.33;37.73;;;;;;;;;;5089544;28;20530;-65
2023/04/09 08:17:42;;;;;;;57.70;36.63;;;;;;;;;;5077178;28;20497;-65
2023/04/09 08:20:11;;;;;;;50.50;35.90;;;;;;;;;;5088858;27;20478;-66
2023/04/09 08:22:39;;;;;;;48.47;33.13;;;;;;;;;;5079542;28;20460;-66
2023/04/09 08:25:06;;;;;;;54.30;34.90;;;;;;;;;;5077337;28;20488;-65
2023/04/09 08:27:34;;;;;;;44.80;31.00;;;;;;;;;;5096886;28;20474;-65
2023/04/09 08:30:01;;;;;;;50.13;33.13;;;;;;;;;;5098637;28;20447;-65
2023/04/09 08:32:27;;;;;;;55.00;34.80;;;;;;;;;;5107491;27;20491;-65
2023/04/09 08:34:54;;;;;;;54.83;36.07;;;;;;;;;;5107102;28;20467;-68
2023/04/09 08:37:21;;;;;;;50.47;33.20;;;;;;;;;;5104168;28;20589;-66
2023/04/09 08:39:48;;;;;;;45.33;32.50;;;;;;;;;;5103639;28;20526;-66
2023/04/09 08:42:14;;;;;;;46.50;33.20;;;;;;;;;;5096888;28;20510;-66
2023/04/09 08:44:41;;;;;;;41.77;30.47;;;;;;;;;;5097932;28;20474;-66
2023/04/09 08:47:08;;;;;;;38.47;30.17;;;;;;;;;;5096556;28;20510;-69
2023/04/09 08:49:35;;;;;;;38.97;29.10;;;;;;;;;;5105111;28;20432;-66
2023/04/09 08:52:01;;;;;;;34.00;27.83;;;;;;;;;;5103030;28;20907;-66
2023/04/09 08:54:29;;;;;;;31.20;26.43;;;;;;;;;;5099424;28;20475;-66
2023/04/09 08:56:56;;;;;;;37.03;29.23;;;;;;;;;;5087937;28;20554;-66
2023/04/09 08:59:22;;;;;;;31.90;24.93;;;;;;;;;;5097044;28;21023;-66
2023/04/09 09:01:53;;;;;;;30.40;26.90;;;;;;;;;;5097350;28;20558;-66
2023/04/09 09:04:19;;;;;;;31.67;26.27;;;;;;;;;;5099831;28;20487;-67
2023/04/09 09:06:45;;;;;;;33.70;27.07;;;;;;;;;;5095357;28;20544;-67
2023/04/09 09:09:12;;;;;;;31.20;26.73;;;;;;;;;;5096450;28;20466;-68
2023/04/09 09:11:41;;;;;;;30.37;26.67;;;;;;;;;;5095293;28;20534;-68
2023/04/09 09:14:08;;;;;;;31.60;27.03;;;;;;;;;;5084149;28;20471;-68
2023/04/09 09:16:38;;;;;;;29.40;26.27;;;;;;;;;;5084512;28;20476;-68
2023/04/09 09:19:05;;;;;;;32.80;26.53;;;;;;;;;;5088953;28;20487;-68
2023/04/09 09:21:32;;;;;;;33.07;27.47;;;;;;;;;;5085405;28;20486;-68
2023/04/09 09:23:58;;;;;;;31.73;26.27;;;;;;;;;;5087882;28;20443;-67
2023/04/09 09:26:27;;;;;;;29.87;25.90;;;;;;;;;;5085754;28;20578;-68
2023/04/09 09:28:57;;;;;;;30.23;26.70;;;;;;;;;;5083082;28;20456;-68
2023/04/09 09:31:24;;;;;;;26.73;23.83;;;;;;;;;;5091168;28;20529;-67
2023/04/09 09:33:51;;;;;;;30.60;25.43;;;;;;;;;;5082345;28;20497;-67
2023/04/09 09:36:31;;;;;;;29.10;22.80;;;;;;;;;;5085584;28;20506;-68
2023/04/09 09:39:00;;;;;;;25.70;23.00;;;;;;;;;;5084673;28;20446;-68
2023/04/09 09:41:27;;;;;;;25.73;23.00;;;;;;;;;;5087828;28;20854;-68
2023/04/09 09:43:55;;;;;;;25.70;23.00;;;;;;;;;;5083847;28;20475;-68
2023/04/09 09:46:22;;;;;;;25.83;23.13;;;;;;;;;;5087571;28;20570;-68
2023/04/09 09:48:48;;;;;;;28.23;22.13;;;;;;;;;;5088450;28;20467;-68
2023/04/09 09:51:15;;;;;;;26.80;23.30;;;;;;;;;;5080932;28;20504;-68
2023/04/09 09:53:43;;;;;;;24.10;21.70;;;;;;;;;;5093540;28;20479;-68
2023/04/09 09:56:14;;;;;;;25.17;21.83;;;;;;;;;;5083228;28;20496;-68
2023/04/09 09:58:41;;;;;;;23.70;21.27;;;;;;;;;;5088935;28;20502;-68
2023/04/09 10:01:11;;;;;;;23.60;21.10;;;;;;;;;;5081780;28;20526;-68
2023/04/09 10:03:38;;;;;;;24.57;21.93;;;;;;;;;;5082847;28;20475;-68
2023/04/09 10:06:05;;;;;;;24.43;21.47;;;;;;;;;;5081732;28;21315;-68
2023/04/09 10:08:33;;;;;;;21.93;19.63;;;;;;;;;;5083018;28;20474;-68
2023/04/09 10:11:00;;;;;;;24.90;21.00;;;;;;;;;;5082951;28;20543;-68
2023/04/09 10:13:31;;;;;;;23.10;20.07;;;;;;;;;;5090744;28;20930;-68
2023/04/09 10:15:57;;;;;;;19.70;17.53;;;;;;;;;;5086651;28;20496;-68
2023/04/09 10:18:25;;;;;;;19.43;17.33;;;;;;;;;;5082063;28;20467;-68
2023/04/09 10:20:55;;;;;;;19.90;17.83;;;;;;;;;;5083434;28;20495;-68
2023/04/09 10:23:27;;;;;;;18.97;16.03;;;;;;;;;;5082076;28;20440;-68
2023/04/09 10:25:53;;;;;;;19.40;17.40;;;;;;;;;;5091022;28;21022;-65
2023/04/09 10:28:20;;;;;;;19.20;16.90;;;;;;;;;;5090290;28;20463;-68
2023/04/09 10:30:46;;;;;;;20.30;16.07;;;;;;;;;;5090512;28;21007;-65
2023/04/09 10:33:14;;;;;;;15.90;14.20;;;;;;;;;;5082388;28;20831;-65
2023/04/09 10:35:42;;;;;;;18.77;15.00;;;;;;;;;;5088240;28;20467;-66
2023/04/09 10:38:09;;;;;;;17.07;13.33;;;;;;;;;;5086220;28;20471;-68
2023/04/09 10:40:36;;;;;;;15.80;12.80;;;;;;;;;;5080496;28;21034;-68
2023/04/09 10:43:04;;;;;;;15.27;12.90;;;;;;;;;;5085185;28;20452;-66
2023/04/09 10:45:39;;;;;;;15.60;13.30;;;;;;;;;;5087095;28;20499;-68
2023/04/09 10:48:06;;;;;;;14.70;11.47;;;;;;;;;;5081786;28;20480;-65
2023/04/09 10:50:35;;;;;;;17.17;14.20;;;;;;;;;;5086928;28;20497;-66
2023/04/09 10:53:03;;;;;;;15.47;11.60;;;;;;;;;;5079718;28;20472;-66
2023/04/09 10:55:30;;;;;;;14.83;13.30;;;;;;;;;;5080880;28;20496;-67
2023/04/09 10:57:57;;;;;;;16.80;14.07;;;;;;;;;;5081591;28;20964;-66
2023/04/09 11:00:23;;;;;;;14.00;10.80;;;;;;;;;;5080352;28;20483;-66
2023/04/09 11:03:10;;;;;;;15.03;13.30;;;;;;;;;;5080611;28;20908;-67
2023/04/09 11:05:38;;;;;;;16.07;13.37;;;;;;;;;;5080290;28;20506;-66
2023/04/09 11:08:07;;;;;;;15.40;13.57;;;;;;;;;;5081149;28;20452;-66
2023/04/09 11:10:33;;;;;;;15.50;13.07;;;;;;;;;;5080235;28;20517;-66
2023/04/09 11:13:00;;;;;;;15.30;12.23;;;;;;;;;;5081144;28;20916;-67
2023/04/09 11:15:27;;;;;;;17.77;13.63;;;;;;;;;;5084236;28;20471;-66
2023/04/09 11:17:53;;;;;;;14.10;12.20;;;;;;;;;;5080230;28;20466;-66
2023/04/09 11:20:20;;;;;;;16.40;12.27;;;;;;;;;;5082906;28;20444;-68
2023/04/09 11:22:47;;;;;;;16.30;13.63;;;;;;;;;;5079176;28;20464;-66
2023/04/09 11:25:19;;;;;;;16.10;12.80;;;;;;;;;;5080226;28;20454;-66
2023/04/09 11:27:46;;;;;;;13.70;11.80;;;;;;;;;;5075500;28;20464;-66
2023/04/09 11:30:13;;;;;;;17.00;12.53;;;;;;;;;;5078208;28;20471;-66
2023/04/09 11:32:39;;;;;;;15.50;11.60;;;;;;;;;;5081004;28;20535;-66
2023/04/09 11:35:11;;;;;;;13.77;11.63;;;;;;;;;;5086270;28;20800;-66
2023/04/09 11:37:38;;;;;;;13.30;10.50;;;;;;;;;;5084286;28;20471;-67
2023/04/09 11:40:04;;;;;;;13.70;11.00;;;;;;;;;;5082104;28;20515;-65
2023/04/09 11:42:32;;;;;;;15.27;12.00;;;;;;;;;;5056747;28;20496;-65
2023/04/09 11:44:59;;;;;;;12.07;9.70;;;;;;;;;;5052576;28;20491;-65
2023/04/09 11:47:26;;;;;;;11.43;9.33;;;;;;;;;;5075799;28;20507;-65
2023/04/09 11:49:52;;;;;;;13.33;10.87;;;;;;;;;;5077324;28;21027;-66
2023/04/09 11:52:19;;;;;;;11.60;9.73;;;;;;;;;;5080053;28;20475;-65
2023/04/09 11:54:48;;;;;;;12.13;10.13;;;;;;;;;;5078176;28;20448;-66
2023/04/09 11:57:14;;;;;;;12.57;9.30;;;;;;;;;;5081802;28;20488;-65
2023/04/09 11:59:42;;;;;;;12.10;10.37;;;;;;;;;;5082618;28;20511;-66
2023/04/09 12:02:08;;;;;;;11.67;10.40;;;;;;;;;;5078079;28;20586;-66
2023/04/09 12:04:35;;;;;;;11.97;9.20;;;;;;;;;;5089145;28;20534;-66
2023/04/09 12:07:01;;;;;;;10.40;9.30;;;;;;;;;;5072347;28;20475;-66
2023/04/09 12:09:28;;;;;;;11.40;9.17;;;;;;;;;;5079998;28;20451;-66
2023/04/09 12:11:54;;;;;;;13.00;10.67;;;;;;;;;;5079465;28;20547;-66
2023/04/09 12:14:21;;;;;;;12.73;10.50;;;;;;;;;;5089645;28;20527;-66
2023/04/09 12:16:52;;;;;;;14.63;11.03;;;;;;;;;;5080187;28;20480;-66
2023/04/09 12:19:25;;;;;;;14.40;11.57;;;;;;;;;;5079544;28;20551;-65
2023/04/09 12:21:54;;;;;;;13.33;10.73;;;;;;;;;;5078364;28;20821;-65
2023/04/09 12:24:23;;;;;;;12.53;10.93;;;;;;;;;;5083828;28;21011;-65
2023/04/09 12:26:49;;;;;;;14.73;11.43;;;;;;;;;;5076312;28;20563;-67
2023/04/09 12:29:16;;;;;;;13.57;10.60;;;;;;;;;;5080712;28;20770;-72
2023/04/09 12:31:43;;;;;;;12.40;10.83;;;;;;;;;;5076955;28;20562;-65
2023/04/09 12:34:11;;;;;;;13.80;11.70;;;;;;;;;;5076928;28;20512;-65
2023/04/09 12:36:38;;;;;;;13.80;11.03;;;;;;;;;;5075819;28;20983;-65
2023/04/09 12:39:04;;;;;;;12.70;10.60;;;;;;;;;;5077884;28;20495;-65
2023/04/09 12:41:31;;;;;;;14.47;11.53;;;;;;;;;;5089320;28;20518;-65
2023/04/09 12:43:57;;;;;;;12.53;10.40;;;;;;;;;;5077767;28;20559;-66
2023/04/09 12:46:24;;;;;;;13.93;9.73;;;;;;;;;;5090672;28;20546;-66
2023/04/09 12:48:51;;;;;;;12.97;10.77;;;;;;;;;;5069684;28;20493;-67
2023/04/09 12:51:18;;;;;;;13.33;10.27;;;;;;;;;;5081760;28;20963;-67
2023/04/09 12:53:45;;;;;;;12.77;9.90;;;;;;;;;;5080272;28;20486;-67
2023/04/09 12:56:11;;;;;;;11.33;10.13;;;;;;;;;;5080467;28;20559;-67
2023/04/09 12:58:38;;;;;;;14.23;9.97;;;;;;;;;;5076512;28;20467;-67
2023/04/09 13:01:04;;;;;;;14.80;11.10;;;;;;;;;;5078447;28;21062;-71
2023/04/09 13:03:31;;;;;;;17.70;12.43;;;;;;;;;;5083060;28;20487;-69
2023/04/09 13:05:57;;;;;;;14.27;11.40;;;;;;;;;;5082810;28;20533;-69
2023/04/09 13:08:25;;;;;;;15.40;12.20;;;;;;;;;;5082559;28;20459;-66
2023/04/09 13:10:52;;;;;;;14.77;11.50;;;;;;;;;;5082420;28;20499;-67
2023/04/09 13:13:18;;;;;;;14.07;11.40;;;;;;;;;;5086462;28;20494;-67
2023/04/09 13:15:45;;;;;;;12.30;10.83;;;;;;;;;;5087888;28;20546;-67
2023/04/09 13:18:12;;;;;;;11.70;10.30;;;;;;;;;;5087834;28;20456;-66
2023/04/09 13:20:38;;;;;;;13.10;10.80;;;;;;;;;;5087862;28;20482;-67
2023/04/09 13:23:05;;;;;;;13.60;11.50;;;;;;;;;;5086821;28;20536;-66
2023/04/09 13:25:32;;;;;;;15.10;11.73;;;;;;;;;;5072140;28;20493;-66
2023/04/09 13:27:59;;;;;;;15.43;11.57;;;;;;;;;;5083767;28;20467;-67
2023/04/09 13:30:25;;;;;;;13.63;12.23;;;;;;;;;;5082027;28;20485;-67
2023/04/09 13:32:51;;;;;;;16.00;11.90;;;;;;;;;;5089544;28;20511;-66
2023/04/09 13:35:18;;;;;;;14.90;11.80;;;;;;;;;;5088837;28;20526;-66
2023/04/09 13:37:45;;;;;;;12.20;10.90;;;;;;;;;;5085950;28;20464;-67
2023/04/09 13:40:11;;;;;;;14.93;11.30;;;;;;;;;;5081781;28;20440;-67
2023/04/09 13:42:39;;;;;;;13.30;10.47;;;;;;;;;;5083199;28;20476;-67
2023/04/09 13:45:06;;;;;;;12.70;10.67;;;;;;;;;;5081635;28;20452;-67
2023/04/09 13:47:33;;;;;;;15.50;11.70;;;;;;;;;;5068872;28;20504;-67
2023/04/09 13:49:59;;;;;;;13.37;10.30;;;;;;;;;;5064131;28;20441;-67
2023/04/09 13:52:26;;;;;;;12.70;10.27;;;;;;;;;;5061449;28;20491;-66
2023/04/09 13:54:53;;;;;;;13.40;10.57;;;;;;;;;;5061580;28;20460;-67
2023/04/09 13:57:19;;;;;;;11.70;10.17;;;;;;;;;;5081401;28;20494;-65
2023/04/09 13:59:47;;;;;;;12.00;10.00;;;;;;;;;;5084469;28;20444;-66
2023/04/09 14:02:13;;;;;;;11.53;9.77;;;;;;;;;;5082233;28;20491;-75
2023/04/09 14:04:40;;;;;;;12.40;9.90;;;;;;;;;;5082410;28;20488;-65
2023/04/09 14:07:07;;;;;;;12.23;9.30;;;;;;;;;;5084431;28;20511;-66
2023/04/09 14:09:33;;;;;;;11.40;9.43;;;;;;;;;;5082398;28;20463;-78
2023/04/09 14:12:00;;;;;;;14.80;8.50;;;;;;;;;;5084166;28;20491;-67
2023/04/09 14:14:26;;;;;;;10.23;8.87;;;;;;;;;;5082563;28;20476;-67
2023/04/09 14:16:54;;;;;;;12.57;8.73;;;;;;;;;;5081176;28;20818;-71
2023/04/09 14:19:21;;;;;;;11.43;9.83;;;;;;;;;;5080812;28;20481;-70
2023/04/09 14:21:48;;;;;;;13.50;8.90;;;;;;;;;;5085446;28;20508;-69
2023/04/09 14:24:14;;;;;;;11.80;9.20;;;;;;;;;;5083901;28;20455;-70
2023/04/09 14:26:40;;;;;;;9.83;8.23;;;;;;;;;;5086618;28;20562;-69
2023/04/09 14:29:07;;;;;;;11.73;9.70;;;;;;;;;;5081427;28;20548;-69
2023/04/09 14:31:33;;;;;;;13.10;10.30;;;;;;;;;;5080491;28;20505;-69
2023/04/09 14:34:01;;;;;;;12.80;9.30;;;;;;;;;;5081468;28;20598;-69
2023/04/09 14:36:28;;;;;;;10.23;8.30;;;;;;;;;;5081808;28;20675;-70
2023/04/09 14:38:54;;;;;;;12.03;9.70;;;;;;;;;;5094163;28;20511;-70
2023/04/09 14:41:21;;;;;;;13.27;8.90;;;;;;;;;;5093512;28;20486;-70
2023/04/09 14:43:48;;;;;;;11.80;10.20;;;;;;;;;;5081188;28;20963;-71
2023/04/09 14:46:14;;;;;;;13.60;10.20;;;;;;;;;;5079927;28;20468;-70
2023/04/09 14:48:41;;;;;;;13.80;9.70;;;;;;;;;;5079706;28;20490;-69
2023/04/09 14:51:10;;;;;;;15.20;10.77;;;;;;;;;;5073441;28;20888;-69
2023/04/09 14:53:37;;;;;;;15.30;10.80;;;;;;;;;;5082784;28;20483;-69
2023/04/09 14:56:03;;;;;;;12.53;9.77;;;;;;;;;;5078526;28;20483;-69
2023/04/09 14:58:30;;;;;;;13.37;10.90;;;;;;;;;;5076812;28;20456;-69
2023/04/09 15:00:56;;;;;;;12.60;10.00;;;;;;;;;;5077327;28;20572;-70
2023/04/09 15:03:23;;;;;;;14.20;10.50;;;;;;;;;;5083654;28;20472;-71
2023/04/09 15:05:49;;;;;;;12.60;9.63;;;;;;;;;;5079214;28;20539;-69
2023/04/09 15:08:17;;;;;;;12.30;10.20;;;;;;;;;;5087502;28;20481;-70
2023/04/09 15:10:44;;;;;;;14.77;10.33;;;;;;;;;;5078630;28;20532;-69
2023/04/09 15:13:10;;;;;;;15.20;11.03;;;;;;;;;;5079482;28;20468;-70
2023/04/09 15:15:39;;;;;;;15.50;11.23;;;;;;;;;;5079663;28;20503;-70
2023/04/09 15:18:06;;;;;;;14.30;11.67;;;;;;;;;;5079367;28;20479;-71
2023/04/09 15:20:35;;;;;;;13.77;11.10;;;;;;;;;;5083865;28;20475;-70
2023/04/09 15:23:02;;;;;;;15.37;10.50;;;;;;;;;;5072576;28;20479;-72
2023/04/09 15:25:30;;;;;;;12.97;11.23;;;;;;;;;;5083647;28;20504;-70